Time;durP1;ratioP1;P1;durP2;ratioP2;P2;SDS_P1;SDS_P2;PMS_P1;PMS_P2;Temp;Humidity;BMP_temperature;BMP_pressure;BME280_temperature;BME280_humidity;BME280_pressure;Samples;Min_cycle;Max_cycle;Signal;HPM_P1;HPM_P2
2023/03/03 00:01:05;;;;;;;6.47;1.90;;;4.70;99.90;;;;;;4922443;29;20496;-72
2023/03/03 00:03:33;;;;;;;0.80;0.60;;;4.60;99.90;;;;;;4922097;29;20519;-73
2023/03/03 00:06:03;;;;;;;0.50;0.30;;;4.70;99.90;;;;;;4929088;29;20455;-74
2023/03/03 00:08:31;;;;;;;3.37;1.37;;;4.70;99.90;;;;;;4940034;29;20461;-73
2023/03/03 00:11:02;;;;;;;7.37;7.07;;;4.60;99.90;;;;;;4941118;29;20492;-72
2023/03/03 00:13:31;;;;;;;3.27;2.97;;;4.60;99.90;;;;;;4940131;29;20795;-73
2023/03/03 00:16:14;;;;;;;7.27;2.10;;;4.60;99.90;;;;;;4939660;29;20489;-74
2023/03/03 00:18:47;;;;;;;2.57;2.37;;;4.60;99.90;;;;;;4939814;29;20455;-73
2023/03/03 00:21:28;;;;;;;0.60;0.60;;;4.60;99.90;;;;;;4941013;29;20481;-74
2023/03/03 00:24:18;;;;;;;1.43;1.20;;;4.50;99.90;;;;;;4939678;29;20458;-75
2023/03/03 00:26:49;;;;;;;1.23;1.13;;;4.40;99.90;;;;;;4934242;28;20945;-75
2023/03/03 00:29:34;;;;;;;0.90;0.90;;;4.40;99.90;;;;;;4940995;29;20473;-73
2023/03/03 00:32:21;;;;;;;2.27;1.30;;;4.40;99.90;;;;;;4940712;29;20489;-72
2023/03/03 00:34:49;;;;;;;2.83;2.10;;;4.40;99.90;;;;;;4941533;29;20451;-75
2023/03/03 00:37:27;;;;;;;1.73;0.93;;;4.30;99.90;;;;;;4938950;29;20906;-74
2023/03/03 00:40:13;;;;;;;0.50;0.20;;;4.30;99.90;;;;;;4927428;29;20461;-73
2023/03/03 00:42:45;;;;;;;3.90;1.23;;;4.30;99.90;;;;;;4921151;29;20482;-73
2023/03/03 00:45:27;;;;;;;0.60;0.37;;;4.30;99.90;;;;;;4919454;29;20435;-72
2023/03/03 00:47:55;;;;;;;5.13;2.37;;;;;;;;;;4919828;29;20449;-73
2023/03/03 00:50:43;;;;;;;1.37;0.93;;;4.30;99.90;;;;;;4927026;29;20529;-74
2023/03/03 00:53:13;;;;;;;2.67;2.57;;;4.30;99.90;;;;;;4932305;29;20448;-72
2023/03/03 00:55:41;;;;;;;2.57;2.47;;;4.30;99.90;;;;;;4935352;29;21016;-72
2023/03/03 00:58:10;;;;;;;2.07;1.67;;;4.20;99.90;;;;;;4930979;29;20495;-72
2023/03/03 05:02:49;;;;;;;2.33;1.47;;;2.20;99.90;;;;;;4987371;23;20554;-74
2023/03/03 05:05:17;;;;;;;5.20;4.83;;;2.00;99.90;;;;;;4968031;28;20450;-73
2023/03/03 05:07:45;;;;;;;0.50;0.10;;;1.90;99.90;;;;;;4965986;28;21083;-74
2023/03/03 05:10:13;;;;;;;2.63;2.00;;;1.90;99.90;;;;;;4967633;28;20816;-73
2023/03/03 05:12:41;;;;;;;5.40;3.00;;;1.80;99.90;;;;;;4968762;28;20518;-74
2023/03/03 05:15:10;;;;;;;3.93;2.83;;;1.80;99.90;;;;;;4969003;28;20450;-74
2023/03/03 05:17:37;;;;;;;9.60;2.50;;;1.70;99.90;;;;;;4970283;28;20475;-74
2023/03/03 05:20:09;;;;;;;1.70;1.60;;;1.60;99.90;;;;;;4963271;28;20451;-72
2023/03/03 05:22:37;;;;;;;5.27;3.57;;;3.50;99.90;;;;;;4960960;28;20467;-74
2023/03/03 05:25:05;;;;;;;6.20;2.90;;;1.60;99.90;;;;;;4945969;29;20456;-75
2023/03/03 05:27:33;;;;;;;13.13;2.67;;;1.50;99.90;;;;;;4944486;29;20456;-75
2023/03/03 05:30:01;;;;;;;7.93;5.97;;;1.50;99.90;;;;;;4947849;29;20466;-75
2023/03/03 05:32:29;;;;;;;7.67;4.87;;;1.50;99.90;;;;;;4951974;28;20490;-73
2023/03/03 05:34:57;;;;;;;8.67;5.00;;;1.40;99.90;;;;;;4954874;28;20473;-74
2023/03/03 05:37:26;;;;;;;0.97;0.60;;;1.40;99.90;;;;;;4967077;28;20479;-73
2023/03/03 05:39:54;;;;;;;0.83;0.67;;;1.40;99.90;;;;;;4966485;28;20448;-74
2023/03/03 05:42:22;;;;;;;1.13;0.93;;;1.40;99.90;;;;;;4955909;28;20476;-74
2023/03/03 05:44:49;;;;;;;3.70;2.73;;;1.40;99.90;;;;;;4946077;29;20461;-75
2023/03/03 05:47:17;;;;;;;2.20;2.00;;;1.40;99.90;;;;;;4954029;29;20443;-74
2023/03/03 05:49:45;;;;;;;0.50;0.20;;;1.40;99.90;;;;;;4950593;29;20449;-74
2023/03/03 05:52:13;;;;;;;7.60;3.97;;;1.40;99.90;;;;;;4956085;29;20821;-73
2023/03/03 05:54:42;;;;;;;0.63;0.47;;;1.40;99.90;;;;;;4952622;29;20455;-74
2023/03/03 05:57:10;;;;;;;0.80;0.40;;;1.40;99.90;;;;;;4953579;28;20537;-76
2023/03/03 05:59:38;;;;;;;5.50;2.40;;;1.50;99.90;;;;;;4958293;29;20942;-75
2023/03/03 06:02:06;;;;;;;4.30;1.20;;;1.50;99.90;;;;;;4954815;29;20994;-74
2023/03/03 06:04:34;;;;;;;2.60;2.30;;;1.40;99.90;;;;;;4965190;28;20447;-75
2023/03/03 06:07:02;;;;;;;8.93;4.73;;;1.40;99.90;;;;;;4964105;28;20535;-76
2023/03/03 06:09:30;;;;;;;2.93;0.93;;;1.40;99.90;;;;;;4957952;28;20456;-73
2023/03/03 06:11:59;;;;;;;5.90;5.30;;;1.50;99.90;;;;;;4946340;29;20484;-75
2023/03/03 06:14:27;;;;;;;4.40;4.13;;;1.50;99.90;;;;;;4942819;29;20815;-73
2023/03/03 06:16:56;;;;;;;3.03;2.40;;;1.50;99.90;;;;;;4941968;29;20554;-74
2023/03/03 06:19:24;;;;;;;2.40;1.70;;;1.50;99.90;;;;;;4947672;29;20466;-74
2023/03/03 06:21:52;;;;;;;2.57;2.33;;;1.50;99.90;;;;;;4958452;29;21041;-76
2023/03/03 06:24:20;;;;;;;5.60;4.90;;;1.50;99.90;;;;;;4958059;29;20455;-77
2023/03/03 06:26:48;;;;;;;9.10;6.10;;;1.40;99.90;;;;;;4965572;28;20451;-75
2023/03/03 06:29:17;;;;;;;12.13;5.93;;;1.50;99.90;;;;;;4963531;28;20443;-76
2023/03/03 06:31:45;;;;;;;11.87;3.97;;;1.40;99.90;;;;;;4953705;29;20618;-76
2023/03/03 06:34:13;;;;;;;2.00;1.60;;;1.40;99.90;;;;;;4947577;29;20444;-75
2023/03/03 06:36:41;;;;;;;3.27;2.13;;;1.50;99.90;;;;;;4945002;29;20460;-75
2023/03/03 06:39:09;;;;;;;0.97;0.60;;;1.50;99.90;;;;;;4947579;29;20490;-75
2023/03/03 06:41:37;;;;;;;18.83;4.93;;;1.60;99.90;;;;;;4947332;29;20478;-75
2023/03/03 06:44:04;;;;;;;0.73;0.73;;;1.60;99.90;;;;;;4956398;29;20478;-74
2023/03/03 06:46:34;;;;;;;9.47;5.37;;;1.60;99.90;;;;;;4966792;28;21047;-75
2023/03/03 06:49:02;;;;;;;9.97;5.87;;;1.70;99.90;;;;;;4948788;29;20793;-74
2023/03/03 06:51:33;;;;;;;3.77;1.77;;;1.80;99.90;;;;;;4948753;29;20468;-75
2023/03/03 06:54:10;;;;;;;2.77;2.57;;;1.80;99.90;;;;;;4946941;29;20444;-74
2023/03/03 06:56:39;;;;;;;3.43;2.47;;;1.80;99.90;;;;;;4955471;29;20458;-75
2023/03/03 06:59:12;;;;;;;14.73;6.30;;;1.90;99.90;;;;;;4963869;28;20942;-76
2023/03/03 07:01:43;;;;;;;5.40;3.00;;;1.80;99.90;;;;;;4965109;29;20484;-75
2023/03/03 07:04:20;;;;;;;3.20;1.80;;;1.80;99.90;;;;;;4955648;28;20470;-74
2023/03/03 07:06:48;;;;;;;19.47;9.17;;;1.80;99.90;;;;;;4969259;28;20450;-75
2023/03/03 07:09:22;;;;;;;4.03;3.70;;;1.90;99.90;;;;;;4967640;28;20443;-75
2023/03/03 07:11:50;;;;;;;2.00;1.80;;;1.90;99.90;;;;;;4956139;28;20486;-75
2023/03/03 07:14:20;;;;;;;10.33;6.53;;;2.00;99.90;;;;;;4966958;28;20459;-77
2023/03/03 07:16:53;;;;;;;2.97;2.27;;;2.00;99.90;;;;;;4970526;28;20451;-73
2023/03/03 07:19:31;;;;;;;10.47;4.33;;;2.00;99.90;;;;;;4976285;28;20483;-74
2023/03/03 07:21:58;;;;;;;18.90;7.53;;;2.00;99.90;;;;;;4975057;28;20541;-75
2023/03/03 07:24:28;;;;;;;8.13;3.90;;;2.00;99.90;;;;;;4954074;29;20512;-76
2023/03/03 07:27:00;;;;;;;0.97;0.93;;;2.00;99.90;;;;;;4953957;29;20461;-77
2023/03/03 07:29:30;;;;;;;3.23;3.03;;;2.10;99.90;;;;;;4960351;29;20447;-75
2023/03/03 07:32:01;;;;;;;9.00;4.33;;;2.30;99.90;;;;;;4948810;29;20476;-76
2023/03/03 07:34:36;;;;;;;17.77;4.40;;;2.30;99.90;;;;;;4953814;29;20474;-76
2023/03/03 07:37:13;;;;;;;6.20;2.00;;;2.40;99.90;;;;;;4960890;28;20456;-78
2023/03/03 07:39:44;;;;;;;6.10;3.93;;;2.40;99.90;;;;;;4959230;28;20490;-77
2023/03/03 07:42:19;;;;;;;4.17;2.17;;;2.30;99.90;;;;;;4957743;28;20484;-77
2023/03/03 07:44:48;;;;;;;4.90;3.47;;;;;;;;;;4961892;28;20437;-73
2023/03/03 07:47:22;;;;;;;6.73;3.97;;;2.20;99.90;;;;;;4960692;28;20446;-74
2023/03/03 07:49:52;;;;;;;1.63;1.27;;;2.20;99.90;;;;;;4961986;29;20475;-76
2023/03/03 07:52:26;;;;;;;2.20;2.03;;;2.20;99.90;;;;;;4964292;28;20476;-73
2023/03/03 07:54:56;;;;;;;10.03;5.50;;;2.30;99.90;;;;;;4963344;29;20439;-73
2023/03/03 07:57:26;;;;;;;0.83;0.83;;;2.30;99.90;;;;;;4971551;28;20966;-74
2023/03/03 08:00:01;;;;;;;1.90;1.80;;;2.30;99.90;;;;;;4952337;28;20544;-76
2023/03/03 08:02:39;;;;;;;0.50;0.10;;;2.40;99.90;;;;;;4959746;29;20505;-75
2023/03/03 08:05:29;;;;;;;1.50;0.47;;;2.40;99.90;;;;;;4971177;28;20443;-75
2023/03/03 08:08:28;;;;;;;1.80;0.73;;;2.50;99.90;;;;;;4949562;29;20502;-75
2023/03/03 08:10:56;;;;;;;1.50;1.40;;;2.60;99.90;;;;;;4944685;29;20472;-75
2023/03/03 08:13:28;;;;;;;1.50;1.40;;;2.50;99.90;;;;;;4956103;29;20451;-75
2023/03/03 08:16:00;;;;;;;2.40;2.00;;;2.70;99.90;;;;;;4959826;28;20450;-75
2023/03/03 08:18:34;;;;;;;2.10;2.00;;;2.80;99.90;;;;;;4960927;28;20502;-75
2023/03/03 08:21:06;;;;;;;0.50;0.20;;;2.90;99.90;;;;;;4961121;28;20854;-75
2023/03/03 08:23:34;;;;;;;5.23;1.07;;;2.80;99.90;;;;;;4946919;28;20455;-73
2023/03/03 08:26:02;;;;;;;17.20;9.73;;;2.80;99.90;;;;;;4951288;28;20444;-75
2023/03/03 08:28:30;;;;;;;6.53;2.93;;;2.70;99.90;;;;;;4953389;28;20466;-76
2023/03/03 08:30:58;;;;;;;5.50;1.67;;;2.70;99.90;;;;;;4954593;29;20477;-74
2023/03/03 08:33:46;;;;;;;2.73;2.00;;;2.80;99.90;;;;;;4948491;29;20442;-74
2023/03/03 08:36:15;;;;;;;0.97;0.77;;;2.80;99.90;;;;;;4951849;29;20444;-76
2023/03/03 08:38:43;;;;;;;5.70;4.33;;;;;;;;;;4953266;29;20485;-75
2023/03/03 08:41:11;;;;;;;6.17;5.83;;;3.10;99.90;;;;;;4951506;28;20460;-75
2023/03/03 08:43:39;;;;;;;2.07;1.93;;;3.10;99.90;;;;;;4947642;29;20444;-75
2023/03/03 08:46:09;;;;;;;12.80;4.37;;;3.10;99.90;;;;;;4944665;29;20919;-74
2023/03/03 08:48:37;;;;;;;2.03;1.33;;;3.10;99.90;;;;;;4951828;28;20507;-74
2023/03/03 08:51:06;;;;;;;2.23;2.03;;;3.00;99.90;;;;;;4944901;28;20548;-76
2023/03/03 08:53:35;;;;;;;1.83;1.03;;;;;;;;;;4937814;29;20959;-75
2023/03/03 08:56:04;;;;;;;5.83;4.60;;;3.00;99.90;;;;;;4945517;29;20442;-74
2023/03/03 08:58:32;;;;;;;5.77;4.87;;;3.10;99.90;;;;;;4946813;29;20448;-75
2023/03/03 09:01:03;;;;;;;4.97;4.50;;;3.10;99.90;;;;;;4942418;29;20468;-77
2023/03/03 09:03:32;;;;;;;3.37;2.77;;;;;;;;;;4942477;29;20900;-76
2023/03/03 09:06:00;;;;;;;0.93;0.30;;;3.10;99.90;;;;;;4954444;29;20481;-77
2023/03/03 09:08:30;;;;;;;2.20;1.93;;;3.00;99.90;;;;;;4949130;29;20449;-76
2023/03/03 09:10:58;;;;;;;4.00;3.70;;;3.00;99.90;;;;;;4944687;29;20475;-75
2023/03/03 09:13:26;;;;;;;0.77;0.70;;;3.00;99.90;;;;;;4960838;28;20558;-74
2023/03/03 09:15:53;;;;;;;2.63;1.60;;;3.00;99.90;;;;;;4957285;28;20451;-74
2023/03/03 09:18:26;;;;;;;1.03;1.03;;;3.00;99.90;;;;;;4945023;29;20683;-75
2023/03/03 09:20:56;;;;;;;1.57;1.43;;;3.00;99.90;;;;;;4944481;29;20460;-75
2023/03/03 09:23:35;;;;;;;4.50;3.57;;;3.10;99.90;;;;;;4955340;29;20456;-74
2023/03/03 09:26:38;;;;;;;2.50;2.30;;;3.10;99.90;;;;;;4958396;28;20479;-77
2023/03/03 09:29:26;;;;;;;1.27;0.70;;;3.10;99.90;;;;;;4939679;28;20459;-74
2023/03/03 09:31:55;;;;;;;2.20;1.63;;;3.30;99.90;;;;;;4939752;29;20475;-77
2023/03/03 09:34:26;;;;;;;2.87;2.67;;;3.30;99.90;;;;;;4950709;29;20486;-77
2023/03/03 09:36:58;;;;;;;6.13;4.10;;;3.40;99.90;;;;;;4951359;29;20581;-75
2023/03/03 09:39:31;;;;;;;3.23;2.93;;;3.30;99.90;;;;;;4956161;28;20481;-74
2023/03/03 09:42:28;;;;;;;8.50;6.30;;;3.30;99.90;;;;;;4949465;29;20463;-74
2023/03/03 09:45:16;;;;;;;2.50;2.30;;;3.30;99.90;;;;;;4942033;29;20557;-74
2023/03/03 09:47:54;;;;;;;4.30;4.07;;;3.20;99.90;;;;;;4944878;29;20466;-74
2023/03/03 09:50:35;;;;;;;1.30;1.20;;;3.30;99.90;;;;;;4952986;29;20925;-75
2023/03/03 09:53:18;;;;;;;3.07;1.60;;;3.30;99.90;;;;;;4957391;28;20449;-76
2023/03/03 09:55:54;;;;;;;2.77;2.57;;;3.40;99.90;;;;;;4954197;28;20453;-75
2023/03/03 09:58:33;;;;;;;1.17;1.07;;;3.60;99.90;;;;;;4956875;28;20526;-76
2023/03/03 10:01:16;;;;;;;2.67;0.97;;;3.90;99.90;;;;;;4940668;28;20493;-74
2023/03/03 10:04:05;;;;;;;2.37;1.37;;;3.90;99.90;;;;;;4949524;28;20462;-76
2023/03/03 10:06:38;;;;;;;5.20;4.80;;;4.00;99.90;;;;;;4958556;28;20459;-77
2023/03/03 10:09:36;;;;;;;1.23;0.80;;;4.10;99.90;;;;;;4950547;28;20450;-74
2023/03/03 10:12:12;;;;;;;1.27;0.77;;;4.20;99.90;;;;;;4951388;29;20865;-74
2023/03/03 10:15:16;;;;;;;0.50;0.30;;;4.40;99.90;;;;;;4958684;28;20453;-74
2023/03/03 10:17:51;;;;;;;2.00;0.93;;;4.40;99.90;;;;;;4962479;28;20484;-75
2023/03/03 10:20:54;;;;;;;9.30;4.20;;;4.50;99.90;;;;;;4959201;29;20483;-76
2023/03/03 10:23:42;;;;;;;1.33;1.23;;;4.50;99.90;;;;;;4974158;28;20702;-75
2023/03/03 10:26:21;;;;;;;4.23;3.93;;;4.50;99.90;;;;;;4970319;29;20445;-75
2023/03/03 10:29:29;;;;;;;0.70;0.60;;;4.50;99.90;;;;;;4960531;29;20449;-73
2023/03/03 10:32:33;;;;;;;6.10;1.93;;;4.50;99.90;;;;;;4948716;29;20492;-73
2023/03/03 10:35:17;;;;;;;1.73;1.63;;;4.50;99.90;;;;;;4943910;28;20506;-73
2023/03/03 10:37:59;;;;;;;7.53;5.30;;;4.60;99.90;;;;;;4954925;29;20439;-74
2023/03/03 10:40:33;;;;;;;2.97;1.30;;;4.50;99.90;;;;;;4956113;29;20574;-78
2023/03/03 10:43:25;;;;;;;1.40;1.30;;;4.50;99.90;;;;;;4955347;29;20457;-73
2023/03/03 10:46:25;;;;;;;0.70;0.57;;;4.60;99.90;;;;;;4952988;29;20480;-75
2023/03/03 10:49:12;;;;;;;2.60;2.33;;;4.70;99.90;;;;;;4964311;29;20457;-75
2023/03/03 10:51:51;;;;;;;1.27;1.07;;;4.70;99.90;;;;;;4961261;29;20513;-74
2023/03/03 10:54:33;;;;;;;1.23;1.13;;;4.60;99.90;;;;;;4951228;28;20449;-74
2023/03/03 10:57:07;;;;;;;5.23;3.03;;;4.60;99.90;;;;;;4943045;29;20461;-75
2023/03/03 10:59:45;;;;;;;7.10;3.33;;;4.50;99.90;;;;;;4946559;28;20492;-74
2023/03/03 11:02:23;;;;;;;0.90;0.43;;;4.50;99.90;;;;;;4958034;28;20494;-75
2023/03/03 11:05:05;;;;;;;3.27;1.23;;;4.50;99.90;;;;;;4945731;28;20462;-75
2023/03/03 11:07:39;;;;;;;0.50;0.20;;;4.70;99.90;;;;;;4945298;29;20473;-75
2023/03/03 11:10:30;;;;;;;1.53;1.37;;;4.80;99.90;;;;;;4947905;29;20835;-75
2023/03/03 11:13:12;;;;;;;0.60;0.40;;;4.90;99.90;;;;;;4948684;29;20457;-76
2023/03/03 11:15:49;;;;;;;10.33;3.70;;;4.90;99.90;;;;;;4957076;28;20457;-76
2023/03/03 11:18:38;;;;;;;3.60;3.30;;;4.90;99.90;;;;;;4951797;28;20469;-75
2023/03/03 11:21:15;;;;;;;8.50;3.90;;;5.10;99.90;;;;;;4955744;29;21022;-75
2023/03/03 11:24:06;;;;;;;21.40;7.33;;;;;;;;;;4942337;28;20481;-76
2023/03/03 11:26:46;;;;;;;2.50;1.37;;;5.00;99.90;;;;;;4960552;28;20445;-75
2023/03/03 11:29:29;;;;;;;0.60;0.40;;;5.00;99.90;;;;;;4967814;28;20468;-76
2023/03/03 11:32:05;;;;;;;2.63;2.23;;;5.10;99.90;;;;;;4965104;29;20484;-76
2023/03/03 11:34:50;;;;;;;0.50;0.10;;;5.10;99.90;;;;;;4967553;28;20450;-75
2023/03/03 11:37:24;;;;;;;3.10;2.20;;;5.20;99.90;;;;;;4949953;28;20557;-76
2023/03/03 11:39:57;;;;;;;1.23;1.13;;;5.20;99.90;;;;;;4946180;29;20458;-76
2023/03/03 11:42:32;;;;;;;7.37;2.40;;;5.20;99.90;;;;;;4948128;29;20966;-75
2023/03/03 11:45:03;;;;;;;1.13;0.50;;;5.30;99.90;;;;;;4945192;29;20524;-74
2023/03/03 11:47:38;;;;;;;4.63;1.70;;;5.30;99.90;;;;;;4953505;29;20471;-75
2023/03/03 11:50:16;;;;;;;0.80;0.80;;;5.20;99.90;;;;;;4964391;28;20463;-75
2023/03/03 11:52:52;;;;;;;0.60;0.30;;;5.20;99.90;;;;;;4961864;28;20485;-75
2023/03/03 11:55:27;;;;;;;1.90;1.80;;;5.20;99.90;;;;;;4965385;29;20468;-73
2023/03/03 11:58:04;;;;;;;15.13;3.20;;;5.30;99.90;;;;;;4972960;28;20441;-76
2023/03/03 12:00:37;;;;;;;0.60;0.40;;;5.30;99.90;;;;;;4973049;28;20481;-75
2023/03/03 12:03:21;;;;;;;3.60;2.13;;;5.30;99.90;;;;;;4971509;28;20520;-75
2023/03/03 12:06:06;;;;;;;5.73;5.43;;;5.40;99.90;;;;;;4962975;28;20545;-77
2023/03/03 12:08:47;;;;;;;0.50;0.20;;;5.30;99.90;;;;;;4964266;29;20450;-73
2023/03/03 12:11:24;;;;;;;0.50;0.10;;;5.40;99.90;;;;;;4973306;28;20545;-76
2023/03/03 12:14:00;;;;;;;7.47;2.10;;;5.40;99.90;;;;;;4973368;28;20497;-78
2023/03/03 12:16:42;;;;;;;0.50;0.20;;;5.60;99.90;;;;;;4958292;28;21008;-75
2023/03/03 12:19:24;;;;;;;6.20;5.83;;;5.60;99.90;;;;;;4956030;29;20423;-76
2023/03/03 12:22:15;;;;;;;0.50;0.20;;;5.60;99.90;;;;;;4954602;29;20490;-75
2023/03/03 12:25:03;;;;;;;0.77;0.73;;;5.60;99.90;;;;;;4963913;29;20461;-75
2023/03/03 12:27:42;;;;;;;1.77;1.67;;;5.70;99.90;;;;;;4964512;28;20456;-74
2023/03/03 12:30:20;;;;;;;3.43;2.50;;;5.80;99.90;;;;;;4960533;28;20462;-76
2023/03/03 12:33:04;;;;;;;0.63;0.57;;;5.70;99.90;;;;;;4947397;28;20455;-76
2023/03/03 12:35:42;;;;;;;2.93;2.23;;;5.70;99.90;;;;;;4948575;29;20457;-76
2023/03/03 12:38:22;;;;;;;1.60;0.80;;;5.70;99.90;;;;;;4949210;29;20530;-77
2023/03/03 12:40:58;;;;;;;2.10;1.90;;;5.80;99.90;;;;;;4953364;29;20540;-76
2023/03/03 12:43:41;;;;;;;4.77;1.17;;;5.80;99.90;;;;;;4964510;29;20459;-76
2023/03/03 12:46:19;;;;;;;1.17;1.07;;;5.90;99.90;;;;;;4974314;29;20450;-76
2023/03/03 12:48:48;;;;;;;0.50;0.10;;;5.90;99.90;;;;;;4971255;29;20515;-75
2023/03/03 12:51:28;;;;;;;0.83;0.30;;;6.20;99.90;;;;;;4967699;28;20462;-77
2023/03/03 12:54:24;;;;;;;1.17;0.57;;;6.20;99.90;;;;;;4967319;29;20450;-76
2023/03/03 12:56:55;;;;;;;6.73;1.53;;;6.30;99.90;;;;;;4970807;29;20799;-74
2023/03/03 12:59:32;;;;;;;2.17;1.97;;;6.30;99.90;;;;;;4971558;28;20865;-76
2023/03/03 13:02:18;;;;;;;1.43;1.33;;;6.40;99.90;;;;;;4971394;28;20497;-76
2023/03/03 13:04:51;;;;;;;1.60;1.50;;;6.40;99.90;;;;;;4971166;29;20463;-74
2023/03/03 13:07:27;;;;;;;1.57;1.33;;;6.40;99.90;;;;;;4952649;29;20447;-76
2023/03/03 13:10:08;;;;;;;2.17;1.50;;;6.40;99.90;;;;;;4954398;29;20450;-77
2023/03/03 13:12:49;;;;;;;0.80;0.47;;;6.40;99.90;;;;;;4951910;29;20486;-75
2023/03/03 13:15:23;;;;;;;0.50;0.23;;;6.40;99.90;;;;;;4961155;28;20455;-80
2023/03/03 13:18:20;;;;;;;9.40;4.23;;;6.50;99.90;;;;;;4957877;29;20450;-78
2023/03/03 13:20:54;;;;;;;8.07;1.80;;;6.70;99.90;;;;;;4965573;28;20493;-81
2023/03/03 13:23:37;;;;;;;10.13;5.80;;;6.60;99.90;;;;;;4947799;28;20510;-78
2023/03/03 13:26:16;;;;;;;2.90;2.37;;;6.60;99.90;;;;;;4952780;29;20478;-78
2023/03/03 13:29:04;;;;;;;2.70;2.23;;;6.60;99.90;;;;;;4951434;29;21000;-78
2023/03/03 13:31:35;;;;;;;1.47;1.37;;;6.60;99.90;;;;;;4952801;29;21104;-78
2023/03/03 13:34:03;;;;;;;0.60;0.37;;;6.60;99.90;;;;;;4972553;28;20449;-75
2023/03/03 13:36:37;;;;;;;2.87;1.43;;;6.60;99.90;;;;;;4954192;29;20444;-76
2023/03/03 13:39:19;;;;;;;1.27;0.60;;;6.80;99.90;;;;;;4970570;28;20511;-77
2023/03/03 13:42:11;;;;;;;0.50;0.10;;;6.90;99.90;;;;;;4972409;28;20498;-77
2023/03/03 13:44:49;;;;;;;7.00;2.40;;;7.00;99.90;;;;;;4973420;29;20458;-77
2023/03/03 13:47:31;;;;;;;1.83;1.07;;;7.00;99.90;;;;;;4968890;28;20443;-76
2023/03/03 13:50:20;;;;;;;1.43;1.33;;;7.00;99.90;;;;;;4961130;29;20482;-78
2023/03/03 13:53:28;;;;;;;0.60;0.40;;;;;;;;;;4966781;28;20460;-76
2023/03/03 13:56:07;;;;;;;8.63;2.80;;;7.10;99.90;;;;;;4961440;29;20457;-76
2023/03/03 13:58:50;;;;;;;0.90;0.60;;;7.10;99.90;;;;;;4963964;28;20535;-76
2023/03/03 14:01:29;;;;;;;1.83;1.57;;;7.10;99.90;;;;;;4952773;29;20518;-76
2023/03/03 14:04:07;;;;;;;0.50;0.10;;;7.10;99.90;;;;;;4965349;29;20470;-77
2023/03/03 14:06:39;;;;;;;1.00;1.00;;;7.10;99.90;;;;;;4967891;29;21039;-77
2023/03/03 14:09:30;;;;;;;0.50;0.10;;;7.10;99.90;;;;;;4968273;28;20439;-75
2023/03/03 14:12:10;;;;;;;1.33;0.73;;;7.10;99.90;;;;;;4971065;28;20463;-78
2023/03/03 14:14:47;;;;;;;1.27;0.97;;;7.10;99.90;;;;;;4968739;29;20596;-77
2023/03/03 14:17:24;;;;;;;0.70;0.47;;;7.30;99.90;;;;;;4958274;29;20457;-78
2023/03/03 14:20:01;;;;;;;2.40;2.23;;;7.30;99.90;;;;;;4965481;28;20463;-77
2023/03/03 14:22:40;;;;;;;1.90;0.73;;;7.30;99.90;;;;;;4964823;29;20485;-78
2023/03/03 14:25:09;;;;;;;0.50;0.10;;;7.30;99.90;;;;;;4975341;28;20465;-78
2023/03/03 14:27:40;;;;;;;0.63;0.47;;;7.40;99.90;;;;;;4967325;28;20451;-79
2023/03/03 14:30:28;;;;;;;0.90;0.87;;;7.50;99.90;;;;;;4962625;28;20488;-79
2023/03/03 14:33:15;;;;;;;0.60;0.20;;;7.40;99.90;;;;;;4972054;28;20454;-77
2023/03/03 14:35:48;;;;;;;0.70;0.30;;;7.40;99.90;;;;;;4976212;28;20446;-76
2023/03/03 14:38:18;;;;;;;1.60;1.50;;;7.40;99.90;;;;;;4958002;28;20471;-76
2023/03/03 14:40:47;;;;;;;1.37;0.93;;;7.40;99.90;;;;;;4975645;28;20443;-77
2023/03/03 14:43:24;;;;;;;0.50;0.13;;;7.30;99.90;;;;;;4966383;28;20528;-76
2023/03/03 14:45:55;;;;;;;0.80;0.40;;;7.40;99.90;;;;;;4976856;28;20459;-77
2023/03/03 14:48:24;;;;;;;0.60;0.20;;;7.50;99.90;;;;;;4976365;28;20470;-79
2023/03/03 14:50:57;;;;;;;1.33;1.07;;;7.60;99.90;;;;;;4962170;28;20471;-78
2023/03/03 14:53:33;;;;;;;2.30;1.17;;;7.80;99.90;;;;;;4965423;29;20470;-77
2023/03/03 14:56:23;;;;;;;1.03;1.03;;;7.60;99.90;;;;;;4974726;28;20482;-76
2023/03/03 14:58:53;;;;;;;2.20;0.63;;;7.50;99.90;;;;;;4975247;28;20446;-77
2023/03/03 15:01:32;;;;;;;2.13;1.83;;;7.50;99.90;;;;;;4974670;28;20510;-77
2023/03/03 15:04:02;;;;;;;1.27;1.17;;;7.50;99.90;;;;;;4973339;28;20439;-77
2023/03/03 15:06:37;;;;;;;1.33;0.67;;;7.40;99.90;;;;;;4969964;28;20471;-78
2023/03/03 15:09:28;;;;;;;1.10;0.50;;;7.50;99.90;;;;;;4950777;29;20554;-77
2023/03/03 15:11:57;;;;;;;4.20;1.23;;;7.50;99.90;;;;;;4970940;28;20463;-78
2023/03/03 15:14:31;;;;;;;1.73;1.63;;;7.40;99.90;;;;;;4974456;28;20470;-76
2023/03/03 15:17:29;;;;;;;0.90;0.80;;;7.40;99.90;;;;;;4959039;29;20461;-78
2023/03/03 15:20:23;;;;;;;0.60;0.33;;;7.50;99.90;;;;;;4954859;29;20451;-77
2023/03/03 15:22:53;;;;;;;0.50;0.10;;;7.50;99.90;;;;;;4966318;29;20482;-77
2023/03/03 15:25:33;;;;;;;0.60;0.30;;;7.70;99.90;;;;;;4971383;28;20430;-77
2023/03/03 15:28:34;;;;;;;1.33;1.23;;;7.70;99.90;;;;;;4970490;28;20458;-76
2023/03/03 15:31:11;;;;;;;0.50;0.10;;;7.70;99.90;;;;;;4970534;28;20466;-76
2023/03/03 15:33:47;;;;;;;3.40;1.73;;;7.70;99.90;;;;;;4970831;29;20534;-78
2023/03/03 15:36:26;;;;;;;0.50;0.10;;;7.80;99.90;;;;;;4976420;28;20477;-79
2023/03/03 15:39:02;;;;;;;1.37;1.17;;;7.90;99.90;;;;;;4973948;28;20431;-75
2023/03/03 15:41:40;;;;;;;2.83;2.53;;;7.80;99.90;;;;;;4973633;28;20554;-76
2023/03/03 15:44:22;;;;;;;1.17;1.07;;;7.80;99.90;;;;;;4957222;28;20439;-76
2023/03/03 15:47:06;;;;;;;2.70;2.60;;;7.70;99.90;;;;;;4961599;29;20453;-79
2023/03/03 15:49:59;;;;;;;0.50;0.20;;;7.70;99.90;;;;;;4960107;28;20454;-79
2023/03/03 15:52:41;;;;;;;1.50;1.40;;;8.00;99.90;;;;;;4961494;28;20547;-78
2023/03/03 15:55:26;;;;;;;3.67;2.03;;;8.00;99.90;;;;;;4955044;29;20449;-79
2023/03/03 15:58:04;;;;;;;3.20;1.07;;;8.30;99.90;;;;;;4960969;28;20509;-78
2023/03/03 16:00:37;;;;;;;0.50;0.10;;;8.70;99.90;;;;;;4953554;28;20485;-79
2023/03/03 16:03:14;;;;;;;1.23;1.13;;;8.80;99.90;;;;;;4963503;28;20862;-78
2023/03/03 16:05:53;;;;;;;0.90;0.90;;;9.20;99.90;;;;;;4966393;28;20557;-77
2023/03/03 16:08:27;;;;;;;0.60;0.30;;;9.20;99.90;;;;;;4957863;28;20498;-78
2023/03/03 16:11:04;;;;;;;0.60;0.20;;;10.30;99.90;;;;;;4950110;29;20497;-76
2023/03/03 16:13:50;;;;;;;2.10;1.03;;;10.40;99.90;;;;;;4962734;28;20536;-79
2023/03/03 16:16:31;;;;;;;0.60;0.10;;;11.40;99.90;;;;;;4954959;29;20898;-76
2023/03/03 16:19:13;;;;;;;0.60;0.20;;;12.30;99.90;;;;;;4952775;29;20761;-78
2023/03/03 16:22:04;;;;;;;6.00;1.33;;;12.40;99.90;;;;;;4953650;28;20477;-78
2023/03/03 16:24:42;;;;;;;2.07;1.03;;;12.20;99.90;;;;;;4958395;29;20554;-78
2023/03/03 16:27:20;;;;;;;0.60;0.10;;;11.60;99.90;;;;;;4957629;28;20460;-76
2023/03/03 16:30:06;;;;;;;0.97;0.50;;;11.60;99.90;;;;;;4960763;28;20448;-77
2023/03/03 16:32:39;;;;;;;1.90;1.63;;;9.10;99.90;;;;;;4962480;28;20473;-76
2023/03/03 16:35:22;;;;;;;0.70;0.57;;;11.10;99.90;;;;;;4961937;28;20458;-78
2023/03/03 16:38:01;;;;;;;0.60;0.20;;;11.00;99.90;;;;;;4942241;29;20464;-76
2023/03/03 16:40:32;;;;;;;0.60;0.10;;;11.00;99.90;;;;;;4958071;29;20454;-78
2023/03/03 16:43:10;;;;;;;0.60;0.10;;;11.00;99.90;;;;;;4955895;28;20521;-79
2023/03/03 16:45:40;;;;;;;0.60;0.10;;;11.00;99.90;;;;;;4952627;28;20505;-78
2023/03/03 16:48:20;;;;;;;0.60;0.20;;;10.70;99.90;;;;;;4957244;29;20634;-77
2023/03/03 16:50:57;;;;;;;0.60;0.10;;;10.40;99.90;;;;;;4959749;28;20450;-77
2023/03/03 16:53:48;;;;;;;1.00;0.20;;;10.40;99.90;;;;;;4947382;29;20836;-78
2023/03/03 16:56:22;;;;;;;2.77;2.57;;;10.10;99.90;;;;;;4952695;28;20545;-77
2023/03/03 16:59:16;;;;;;;0.60;0.37;;;9.80;99.90;;;;;;4957328;28;20446;-77
2023/03/03 17:01:50;;;;;;;0.50;0.10;;;9.20;99.90;;;;;;4929266;28;21009;-77
2023/03/03 17:04:35;;;;;;;0.60;0.20;;;9.20;99.90;;;;;;4949910;29;20482;-78
2023/03/03 17:07:15;;;;;;;8.07;7.60;;;8.70;99.90;;;;;;4943727;28;20476;-77
2023/03/03 17:10:04;;;;;;;0.50;0.10;;;8.30;99.90;;;;;;4940836;29;20455;-78
2023/03/03 17:12:46;;;;;;;0.50;0.10;;;8.10;99.90;;;;;;4929485;29;20488;-76
2023/03/03 17:15:24;;;;;;;0.50;0.10;;;8.00;99.90;;;;;;4954661;28;20973;-76
2023/03/03 17:18:01;;;;;;;2.87;2.77;;;7.80;99.90;;;;;;4957868;28;20447;-76
2023/03/03 17:20:39;;;;;;;0.50;0.10;;;7.40;99.90;;;;;;4954304;28;20467;-76
2023/03/03 17:23:34;;;;;;;1.57;1.47;;;7.40;99.90;;;;;;4955373;29;21389;-76
2023/03/03 17:26:20;;;;;;;0.50;0.10;;;7.20;99.90;;;;;;4960650;28;20451;-77
2023/03/03 17:28:57;;;;;;;0.50;0.10;;;7.10;99.90;;;;;;4960543;28;20443;-78
2023/03/03 17:31:34;;;;;;;0.50;0.30;;;6.90;99.90;;;;;;4955399;28;20492;-75
2023/03/03 17:34:19;;;;;;;0.50;0.10;;;6.80;99.90;;;;;;4953510;29;20546;-76
2023/03/03 17:37:03;;;;;;;2.00;1.03;;;9.60;99.90;;;;;;4960584;29;20458;-77
2023/03/03 17:39:57;;;;;;;0.60;0.30;;;6.60;99.90;;;;;;4966257;28;20450;-77
2023/03/03 17:42:36;;;;;;;0.50;0.10;;;6.40;99.90;;;;;;4953125;28;20463;-78
2023/03/03 17:45:09;;;;;;;0.50;0.10;;;6.30;99.90;;;;;;4952032;29;20450;-76
2023/03/03 17:47:50;;;;;;;0.50;0.10;;;6.30;99.90;;;;;;4967105;28;20457;-76
2023/03/03 17:50:35;;;;;;;0.60;0.20;;;6.30;99.90;;;;;;4970119;28;20757;-76